createdAt,value
2019-04-20T00:04:20.607Z,15.80
2019-04-20T00:06:56.469Z,15.80
2019-04-20T00:09:40.042Z,15.70
2019-04-20T00:12:37.387Z,15.70
2019-04-20T00:15:07.017Z,15.70
2019-04-20T00:17:55.042Z,15.70
2019-04-20T00:20:33.991Z,15.70
2019-04-20T00:23:40.431Z,15.70
2019-04-20T00:27:08.495Z,15.70
2019-04-20T00:29:35.550Z,15.60
2019-04-20T00:32:12.352Z,15.60
2019-04-20T00:34:46.867Z,15.60
2019-04-20T00:37:27.870Z,15.50
2019-04-20T00:40:09.856Z,15.40
2019-04-20T00:42:53.836Z,15.40
2019-04-20T00:45:35.246Z,15.40
2019-04-20T00:48:22.414Z,15.40
2019-04-20T00:51:17.326Z,15.30
2019-04-20T00:53:47.893Z,15.30
2019-04-20T00:56:24.507Z,15.30
2019-04-20T00:59:17.110Z,15.30
2019-04-20T01:02:03.718Z,15.30
2019-04-20T01:04:53.959Z,15.30
2019-04-20T01:10:29.259Z,15.30
2019-04-20T01:13:20.064Z,15.20
2019-04-20T01:16:06.265Z,15.20
2019-04-20T01:18:43.717Z,15.20
2019-04-20T01:21:25.368Z,15.20
2019-04-20T01:24:08.355Z,15.10
2019-04-20T01:26:53.702Z,15.10
2019-04-20T01:29:39.361Z,15.10
2019-04-20T01:32:23.346Z,15.10
2019-04-20T01:35:09.923Z,15.10
2019-04-20T01:37:57.613Z,15.00
2019-04-20T01:46:07.541Z,15.00
2019-04-20T01:48:43.416Z,15.00
2019-04-20T01:51:29.738Z,15.00
2019-04-20T01:54:29.745Z,15.00
2019-04-20T01:57:09.459Z,15.00
2019-04-20T01:59:54.312Z,14.90
2019-04-20T02:02:50.437Z,14.90
2019-04-20T02:05:32.388Z,14.90
2019-04-20T02:08:15.614Z,14.90
2019-04-20T02:10:57.631Z,14.90
2019-04-20T02:13:43.060Z,14.90
2019-04-20T02:16:27.307Z,14.90
2019-04-20T02:19:13.519Z,14.80
2019-04-20T02:21:59.152Z,14.80
2019-04-20T02:24:25.887Z,14.80
2019-04-20T02:27:06.487Z,14.80
2019-04-20T02:30:14.079Z,14.80
2019-04-20T02:33:21.639Z,14.70
2019-04-20T02:36:11.064Z,14.70
2019-04-20T02:39:21.922Z,14.70
2019-04-20T02:44:36.893Z,14.70
2019-04-20T02:49:50.944Z,14.70
2019-04-20T02:52:44.168Z,14.70
2019-04-20T02:55:15.230Z,14.70
2019-04-20T03:00:33.628Z,14.70
2019-04-20T03:03:03.520Z,14.70
2019-04-20T03:05:43.237Z,14.60
2019-04-20T03:11:44.243Z,14.60
2019-04-20T03:14:09.534Z,14.60
2019-04-20T03:16:56.776Z,14.60
2019-04-20T03:25:13.864Z,14.50
2019-04-20T03:31:25.076Z,14.50
2019-04-20T03:41:33.297Z,14.40
2019-04-20T04:06:41.905Z,14.20
2019-04-20T04:09:25.806Z,14.20
2019-04-20T04:12:09.107Z,14.20
2019-04-20T04:14:40.922Z,14.10
2019-04-20T04:17:28.780Z,14.10
2019-04-20T04:20:11.312Z,14.10
2019-04-20T04:23:03.692Z,14.10
2019-04-20T04:25:43.805Z,14.00
2019-04-20T04:28:29.886Z,14.00
2019-04-20T04:31:13.379Z,13.90
2019-04-20T04:33:58.210Z,13.90
2019-04-20T04:36:44.507Z,13.80
2019-04-20T04:39:25.186Z,13.80
2019-04-20T04:42:10.249Z,13.70
2019-04-20T04:44:39.997Z,13.70
2019-04-20T04:47:14.878Z,13.60
2019-04-20T04:50:04.840Z,13.60
2019-04-20T04:52:45.626Z,13.60
2019-04-20T04:55:30.861Z,13.50
2019-04-20T04:58:02.491Z,13.50
2019-04-20T05:00:44.484Z,13.40
2019-04-20T05:03:45.997Z,13.40
2019-04-20T05:06:41.373Z,13.40
2019-04-20T05:09:12.504Z,13.50
2019-04-20T05:12:00.811Z,13.50
2019-04-20T05:14:48.313Z,13.50
2019-04-20T05:17:41.024Z,13.50
2019-04-20T05:20:18.109Z,13.50
2019-04-20T05:26:14.070Z,13.50
2019-04-20T05:28:45.843Z,13.60
2019-04-20T05:31:18.689Z,13.60
2019-04-20T05:34:21.611Z,13.60
2019-04-20T05:37:13.652Z,13.60
2019-04-20T05:39:44.824Z,13.60
2019-04-20T05:42:33.447Z,13.60
2019-04-20T05:45:08.614Z,13.70
2019-04-20T05:47:48.237Z,13.70
2019-04-20T05:50:31.561Z,13.80
2019-04-20T05:53:19.909Z,13.80
2019-04-20T05:55:56.048Z,13.80
2019-04-20T06:01:42.485Z,13.90
2019-04-20T06:04:30.114Z,13.90
2019-04-20T06:07:11.075Z,14.00
2019-04-20T06:09:47.783Z,14.10
2019-04-20T06:12:31.510Z,14.20
2019-04-20T06:18:24.138Z,14.30
2019-04-20T06:21:19.937Z,14.30
2019-04-20T06:26:54.116Z,14.50
2019-04-20T06:29:23.535Z,14.50
2019-04-20T06:32:10.983Z,14.60
2019-04-20T06:34:49.005Z,14.70
2019-04-20T06:37:36.263Z,14.80
2019-04-20T06:40:36.500Z,14.90
2019-04-20T06:42:59.952Z,15.00
2019-04-20T06:45:51.136Z,15.10
2019-04-20T06:48:29.372Z,15.20
2019-04-20T06:51:17.472Z,15.30
2019-04-20T06:56:49.961Z,15.60
2019-04-20T06:59:39.285Z,15.70
2019-04-20T07:02:25.376Z,15.80
2019-04-20T07:07:47.529Z,16.00
2019-04-20T07:10:35.916Z,16.20
2019-04-20T07:15:52.199Z,16.30
2019-04-20T07:24:33.409Z,16.60
2019-04-20T07:35:26.010Z,17.00
2019-04-20T07:40:51.983Z,17.20
2019-04-20T07:57:32.103Z,17.80
2019-04-20T08:00:14.625Z,17.90
2019-04-20T08:08:43.924Z,18.20
2019-04-20T08:11:21.401Z,18.30
2019-04-20T08:14:22.669Z,18.40
2019-04-20T08:17:09.688Z,18.50
2019-04-20T08:19:36.645Z,18.50
2019-04-20T08:22:19.771Z,18.60
2019-04-20T08:24:59.302Z,18.70
2019-04-20T08:27:29.804Z,18.90
2019-04-20T08:30:33.988Z,19.00
2019-04-20T08:33:17.792Z,19.10
2019-04-20T08:36:07.439Z,19.20
2019-04-20T08:41:28.650Z,19.40
2019-04-20T08:44:38.106Z,19.50
2019-04-20T08:47:06.175Z,19.70
2019-04-20T08:49:41.332Z,19.80
2019-04-20T08:52:44.642Z,20.00
2019-04-20T08:55:04.912Z,20.10
2019-04-20T08:57:27.068Z,20.20
2019-04-20T09:00:09.162Z,20.30
2019-04-20T09:02:57.859Z,20.40
2019-04-20T09:05:45.551Z,20.50
2019-04-20T09:08:23.564Z,20.60
2019-04-20T09:11:18.192Z,20.80
2019-04-20T09:13:46.453Z,21.00
2019-04-20T09:16:31.747Z,21.10
2019-04-20T09:19:12.322Z,21.30
2019-04-20T09:21:57.515Z,21.40
2019-04-20T09:24:57.654Z,21.40
2019-04-20T09:27:25.347Z,21.50
2019-04-20T09:30:09.028Z,21.60
2019-04-20T09:33:04.569Z,21.80
2019-04-20T09:35:49.557Z,22.10
2019-04-20T09:38:27.160Z,22.30
2019-04-20T09:41:18.513Z,22.40
2019-04-20T09:43:43.147Z,22.50
2019-04-20T09:46:24.424Z,22.60
2019-04-20T09:49:15.664Z,22.70
2019-04-20T09:52:05.252Z,22.70
2019-04-20T09:54:45.539Z,22.80
2019-04-20T09:57:29.546Z,23.00
2019-04-20T10:00:12.112Z,23.20
2019-04-20T10:08:09.998Z,23.60
2019-04-20T10:10:52.934Z,23.80
2019-04-20T10:13:34.333Z,24.00
2019-04-20T10:16:15.759Z,24.20
2019-04-20T10:18:56.943Z,24.30
2019-04-20T10:21:38.211Z,24.40
2019-04-20T10:24:18.977Z,24.50
2019-04-20T10:27:00.724Z,24.70
2019-04-20T10:29:41.726Z,24.90
2019-04-20T10:32:31.055Z,25.00
2019-04-20T10:35:06.480Z,25.10
2019-04-20T10:37:51.586Z,25.10
2019-04-20T10:40:44.814Z,25.20
2019-04-20T10:43:16.203Z,25.30
2019-04-20T10:45:57.618Z,25.40
2019-04-20T10:48:45.259Z,25.50
2019-04-20T10:51:21.795Z,25.60
2019-04-20T10:54:02.686Z,25.60
2019-04-20T10:56:43.512Z,25.80
2019-04-20T10:59:25.689Z,25.80
2019-04-20T11:02:07.801Z,25.90
2019-04-20T11:04:50.518Z,26.00
2019-04-20T11:07:32.452Z,25.90
2019-04-20T11:13:03.298Z,26.10
2019-04-20T11:18:35.498Z,26.20
2019-04-20T11:24:00.421Z,26.20
2019-04-20T11:32:20.218Z,26.50
2019-04-20T12:14:12.652Z,29.30
2019-04-20T12:22:26.214Z,30.20
2019-04-20T12:25:07.936Z,30.10
2019-04-20T12:27:52.652Z,30.40
2019-04-20T12:30:30.902Z,30.80
2019-04-20T12:33:11.738Z,30.90
2019-04-20T12:35:52.438Z,30.40
2019-04-20T12:38:32.997Z,30.40
2019-04-20T12:41:14.600Z,30.70
2019-04-20T12:43:57.234Z,31.00
2019-04-20T12:46:38.210Z,30.90
2019-04-20T12:49:19.859Z,31.00
2019-04-20T12:52:05.107Z,31.20
2019-04-20T12:54:45.125Z,31.50
2019-04-20T12:57:26.813Z,31.50
2019-04-20T13:00:08.188Z,31.80
2019-04-20T13:02:49.486Z,32.10
2019-04-20T13:05:30.031Z,32.20
2019-04-20T13:08:13.821Z,32.30
2019-04-20T13:11:00.397Z,32.30
2019-04-20T13:13:48.265Z,32.20
2019-04-20T13:16:34.405Z,32.20
2019-04-20T13:19:15.112Z,32.10
2019-04-20T13:21:56.792Z,32.20
2019-04-20T13:24:39.002Z,32.30
2019-04-20T13:27:20.867Z,32.00
2019-04-20T13:30:03.227Z,32.00
2019-04-20T13:32:43.663Z,32.10
2019-04-20T13:35:24.131Z,31.10
2019-04-20T13:38:04.831Z,31.20
2019-04-20T13:40:45.953Z,31.50
2019-04-20T13:43:27.853Z,31.50
2019-04-20T13:46:09.148Z,31.70
2019-04-20T13:48:53.207Z,31.40
2019-04-20T13:51:34.858Z,31.40
2019-04-20T13:54:19.499Z,31.50
2019-04-20T13:56:58.516Z,31.30
2019-04-20T13:59:44.303Z,31.30
2019-04-20T14:02:31.002Z,31.60
2019-04-20T14:05:12.879Z,31.90
2019-04-20T14:07:53.546Z,32.10
2019-04-20T14:10:35.179Z,32.20
2019-04-20T14:13:18.686Z,32.10
2019-04-20T14:15:58.900Z,32.30
2019-04-20T14:21:36.518Z,32.20
2019-04-20T14:24:17.554Z,32.20
2019-04-20T14:26:59.001Z,32.30
2019-04-20T14:29:41.174Z,32.30
2019-04-20T14:32:22.887Z,32.20
2019-04-20T14:35:05.003Z,32.30
2019-04-20T14:37:45.969Z,32.40
2019-04-20T14:40:28.236Z,32.10
2019-04-20T14:43:09.151Z,32.20
2019-04-20T14:45:50.528Z,31.80
2019-04-20T14:51:14.034Z,31.90
2019-04-20T14:53:55.667Z,31.80
2019-04-20T14:56:37.772Z,31.70
2019-04-20T14:59:23.273Z,31.80
2019-04-20T15:02:08.440Z,32.00
2019-04-20T15:04:50.346Z,32.20
2019-04-20T15:10:18.615Z,32.30
2019-04-20T15:13:02.847Z,31.90
2019-04-20T15:15:46.419Z,31.50
2019-04-20T15:18:31.654Z,31.40
2019-04-20T15:21:15.524Z,31.40
2019-04-20T15:23:57.485Z,31.60
2019-04-20T15:26:38.616Z,31.60
2019-04-20T15:32:02.117Z,32.10
2019-04-20T15:37:33.034Z,31.80
2019-04-20T15:43:06.724Z,31.40
2019-04-20T15:56:56.940Z,31.40
2019-04-20T16:13:38.080Z,30.70
2019-04-20T16:16:16.175Z,30.50
2019-04-20T16:18:57.331Z,30.20
2019-04-20T16:21:37.733Z,30.00
2019-04-20T16:24:19.971Z,29.90
2019-04-20T16:29:57.740Z,29.90
2019-04-20T16:32:39.030Z,30.00
2019-04-20T16:35:20.349Z,30.00
2019-04-20T16:38:02.554Z,30.00
2019-04-20T16:40:44.376Z,29.70
2019-04-20T16:43:30.491Z,29.40
2019-04-20T16:46:08.969Z,29.00
2019-04-20T16:48:50.247Z,28.70
2019-04-20T16:51:31.210Z,28.40
2019-04-20T16:54:11.982Z,28.20
2019-04-20T16:56:53.177Z,27.90
2019-04-20T16:59:42.367Z,27.70
2019-04-20T17:02:17.824Z,27.30
2019-04-20T17:04:59.374Z,27.10
2019-04-20T17:07:42.817Z,26.70
2019-04-20T17:10:24.086Z,26.40
2019-04-20T17:13:06.373Z,26.20
2019-04-20T17:15:47.893Z,26.00
2019-04-20T17:18:29.460Z,25.80
2019-04-20T17:21:16.621Z,25.70
2019-04-20T17:23:53.333Z,25.60
2019-04-20T17:32:45.463Z,25.30
2019-04-20T17:35:37.926Z,25.10
2019-04-20T17:38:09.146Z,25.10
2019-04-20T17:41:02.932Z,25.00
2019-04-20T17:43:50.700Z,24.90
2019-04-20T17:46:28.618Z,24.80
2019-04-20T17:49:15.827Z,24.70
2019-04-20T17:52:06.713Z,24.70
2019-04-20T17:54:43.261Z,24.60
2019-04-20T17:57:23.623Z,24.50
2019-04-20T18:03:15.821Z,24.40
2019-04-20T18:06:06.156Z,24.30
2019-04-20T18:11:14.998Z,24.20
2019-04-20T18:13:58.921Z,24.00
2019-04-20T18:16:59.480Z,23.90
2019-04-20T18:22:27.926Z,23.50
2019-04-20T18:25:30.066Z,23.30
2019-04-20T18:28:04.473Z,23.20
2019-04-20T18:36:37.887Z,22.60
2019-04-20T18:39:16.534Z,22.40
2019-04-20T18:42:03.123Z,22.30
2019-04-20T18:45:00.953Z,22.10
2019-04-20T18:47:39.179Z,22.00
2019-04-20T18:50:15.020Z,21.90
2019-04-20T18:52:47.992Z,21.80
2019-04-20T18:55:39.060Z,21.80
2019-04-20T18:58:13.234Z,21.70
2019-04-20T19:00:55.494Z,21.60
2019-04-20T19:03:41.929Z,21.50
2019-04-20T19:06:21.038Z,21.40
2019-04-20T19:09:02.919Z,21.30
2019-04-20T19:11:50.844Z,21.20
2019-04-20T19:14:48.847Z,21.20
2019-04-20T19:17:59.253Z,21.10
2019-04-20T19:20:33.044Z,21.00
2019-04-20T19:23:14.759Z,20.90
2019-04-20T19:26:02.420Z,20.90
2019-04-20T19:28:44.493Z,20.80
2019-04-20T19:31:39.018Z,20.80
2019-04-20T19:34:18.812Z,20.70
2019-04-20T19:36:59.048Z,20.60
2019-04-20T19:39:45.566Z,20.50
2019-04-20T19:42:27.631Z,20.30
2019-04-20T19:47:51.717Z,19.90
2019-04-20T19:53:26.662Z,19.80
2019-04-20T20:26:41.703Z,19.70
2019-04-20T20:29:27.444Z,19.70
2019-04-20T20:32:11.923Z,19.60
2019-04-20T20:37:39.681Z,19.60
2019-04-20T20:40:25.619Z,19.50
2019-04-20T20:43:11.108Z,19.50
2019-04-20T20:45:56.804Z,19.50
2019-04-20T20:48:38.537Z,19.50
2019-04-20T20:51:23.306Z,19.50
2019-04-20T20:53:56.522Z,19.50
2019-04-20T20:56:36.734Z,19.50
2019-04-20T20:59:29.149Z,19.50
2019-04-20T21:02:06.834Z,19.40
2019-04-20T21:04:39.468Z,19.30
2019-04-20T21:07:20.609Z,19.30
2019-04-20T21:10:01.860Z,19.20
2019-04-20T21:12:52.048Z,19.10
2019-04-20T21:15:27.946Z,19.10
2019-04-20T21:18:33.560Z,19.00
2019-04-20T21:21:10.266Z,19.00
2019-04-20T21:23:45.774Z,18.90
2019-04-20T21:26:23.594Z,18.90
2019-04-20T21:28:57.782Z,18.90
2019-04-20T21:31:44.307Z,18.90
2019-04-20T21:34:22.285Z,18.80
2019-04-20T21:37:11.671Z,18.80
2019-04-20T21:39:53.369Z,18.70
2019-04-20T21:42:34.512Z,18.60
2019-04-20T21:45:19.823Z,18.60
2019-04-20T21:47:52.651Z,18.50
2019-04-20T21:50:58.250Z,18.50
2019-04-20T21:53:33.368Z,18.40
2019-04-20T21:56:19.822Z,18.40
2019-04-20T21:59:16.639Z,18.40
2019-04-20T22:02:09.868Z,18.30
2019-04-20T22:04:49.276Z,18.30
2019-04-20T22:07:38.665Z,18.20
2019-04-20T22:10:32.453Z,18.20
2019-04-20T22:13:25.492Z,18.10
2019-04-20T22:16:05.193Z,18.10
2019-04-20T22:18:52.958Z,18.00
2019-04-20T22:21:35.478Z,18.00
2019-04-20T22:24:21.625Z,18.00
2019-04-20T22:27:00.114Z,17.90
2019-04-20T22:29:34.002Z,17.90
2019-04-20T22:32:17.261Z,17.90
2019-04-20T22:35:03.048Z,17.90
2019-04-20T22:37:47.776Z,17.80
2019-04-20T22:40:33.061Z,17.80
2019-04-20T22:43:12.599Z,17.70
2019-04-20T22:48:50.936Z,17.60
2019-04-20T22:51:40.000Z,17.60
2019-04-20T22:54:21.764Z,17.50
2019-04-20T22:57:02.273Z,17.50
2019-04-20T22:59:44.696Z,17.50
2019-04-20T23:02:16.524Z,17.50
2019-04-20T23:05:00.579Z,17.40
2019-04-20T23:07:41.896Z,17.30
2019-04-20T23:10:27.814Z,17.30
2019-04-20T23:13:05.487Z,17.30
2019-04-20T23:15:50.724Z,17.30
2019-04-20T23:18:28.776Z,17.30
2019-04-20T23:21:13.663Z,17.20
2019-04-20T23:23:55.337Z,17.20
2019-04-20T23:26:38.676Z,17.20
2019-04-20T23:29:22.056Z,17.10
2019-04-20T23:32:04.917Z,17.10
2019-04-20T23:34:44.773Z,17.10
2019-04-20T23:37:31.230Z,17.10
2019-04-20T23:40:11.292Z,17.00
2019-04-20T23:42:51.815Z,16.90
2019-04-20T23:49:18.677Z,16.90
2019-04-20T23:52:11.928Z,16.90
2019-04-20T23:54:38.757Z,16.80
